• Join FlightAware (Why Join?)
  • Login
  • US Flag 
12:49AM EDT


 

Airport Tracker/Info


-or-


 

Live Flight TrackerFlight Track Log ✈ UAL3826 ✈ 27-Apr-2014 ✈ KEWR - KSDF

Flight Track Log - Related Links

Times and Time Zones

All times are in EDT time to prevent confusion due to time zone crossing. See the UAL3826 flight status page for this flight to view local times or setup timezone preferences in your user account.

Time Position Orientation Groundspeed Altitude Reporting Facility
EDT Latitude Longitude Course Direction KTS MPH feet Rate Location/Type
04:31PM 40.7333 -74.1333 270° West 174 200 2,100  Level New York TRACON
04:32PM 40.7333 -74.2167 270° West 245 282 3,700 1,860 Climbing New York TRACON
04:33PM 40.7167 -74.3000 255° West 254 292 5,900 2,220 Climbing New York TRACON
04:34PM 40.7000 -74.3833 255° West 263 303 8,000 1,980 Climbing New York TRACON
04:34PM 40.6939 -74.4469 263° West 264 304 9,000 1,740 Climbing New York Center
04:35PM 40.6933 -74.5372 270° West 276 318 10,700 1,080 Climbing New York Center
04:36PM 40.6919 -74.6383 269° West 292 336 11,200 1,080 Climbing New York Center
04:37PM 40.6897 -74.7722 269° West 323 372 12,900 1,740 Climbing New York Center
04:38PM 40.6881 -74.8789 269° West 337 388 14,700 1,800 Climbing New York Center
04:39PM 40.6842 -74.9908 267° West 323 372 16,500 1,440 Climbing New York Center
04:40PM 40.6650 -75.1128 258° West 312 359 17,600 900 Climbing New York Center
04:41PM 40.6172 -75.2247 241° Southwest 334 384 18,400 780 Climbing New York Center
04:42PM 40.5717 -75.3256 239° Southwest 346 398 19,200 900 Climbing New York Center
04:43PM 40.5194 -75.4367 238° Southwest 352 405 20,200 900 Climbing New York Center
04:44PM 40.4667 -75.5533 239° Southwest 362 417 21,100 900 Climbing New York Center
04:45PM 40.4142 -75.6694 239° Southwest 367 422 22,000 900 Climbing New York Center
04:46PM 40.3592 -75.7856 238° Southwest 374 430 23,000 900 Climbing New York Center
04:47PM 40.3061 -75.9042 240° Southwest 374 430 23,900 960 Climbing New York Center
04:48PM 40.2469 -76.0194 236° Southwest 379 436 25,000 960 Climbing New York Center
04:49PM 40.1917 -76.1347 238° Southwest 379 436 25,900 900 Climbing New York Center
04:51PM 40.1635 -76.3060 237° Southwest  Level Estimated
04:51PM 40.0825 -76.3761 237° Southwest 371 427 27,800  Level New York Center
04:52PM 40.0311 -76.4911 240° Southwest 371 427 28,800 960 Climbing New York Center
04:53PM 39.9775 -76.6033 238° Southwest 371 427 29,800 1,020 Climbing New York Center
04:54PM 39.9264 -76.7128 239° Southwest 371 427 30,900 1,080 Climbing New York Center
04:55PM 39.8750 -76.8222 239° Southwest 371 427 32,000 1,080 Climbing New York Center
04:56PM 39.8422 -76.8858 236° Southwest 369 425 32,700 1,020 Climbing Washington Center
04:57PM 39.7931 -76.9931 239° Southwest 357 411 33,700 660 Climbing Washington Center
04:58PM 39.7397 -77.1025 238° Southwest 357 411 34,000 120 Climbing Washington Center
04:59PM 39.6839 -77.2228 239° Southwest 367 422 34,000  Level Washington Center
05:00PM 39.6258 -77.3456 238° Southwest 383 441 34,000  Level Washington Center
05:01PM 39.5636 -77.4758 238° Southwest 414 476 34,000  Level Washington Center
05:02PM 39.5011 -77.6033 238° Southwest 421 484 34,000  Level Washington Center
05:03PM 39.4425 -77.7306 239° Southwest 426 490 34,000  Level Washington Center
05:04PM 39.3819 -77.8578 238° Southwest 426 490 34,000  Level Washington Center
05:05PM 39.3314 -77.9850 243° Southwest 421 484 34,000  Level Washington Center
05:06PM 39.2811 -78.1119 243° Southwest 409 471 34,000  Level Washington Center
05:07PM 39.2303 -78.2389 243° Southwest 404 465 34,000  Level Washington Center
05:08PM 39.1839 -78.3525 242° Southwest 404 465 34,000  Level Washington Center
05:09PM 39.1331 -78.4789 243° Southwest 404 465 34,000  Level Washington Center
05:10PM 39.0819 -78.6081 243° Southwest 404 465 34,000  Level Washington Center
05:11PM 39.0286 -78.7367 242° Southwest 404 465 34,000  Level Washington Center
05:12PM 38.9750 -78.8678 242° Southwest 404 465 34,000  Level Washington Center
05:13PM 38.9214 -79.0017 243° Southwest 409 471 34,000  Level Washington Center
05:14PM 38.8697 -79.1272 242° Southwest 409 471 34,000  Level Washington Center
05:16PM 38.8053 -79.3958 253° West 403 464 34,000  Level Washington Center
05:17PM 38.7711 -79.5486 254° West 398 458 34,000  Level Washington Center
05:18PM 38.7564 -79.6783 262° West 403 464 34,000  Level Washington Center
05:19PM 38.7308 -79.8150 257° West 408 470 34,000  Level Washington Center
05:20PM 38.6944 -79.9914 255° West 400 460 34,000  Level Indianapolis Center
05:21PM 38.6697 -80.1300 257° West 401 461 34,000  Level Indianapolis Center
05:22PM 38.6378 -80.2942 256° West 398 458 34,000  Level Indianapolis Center
05:23PM 38.6117 -80.4328 256° West 398 458 34,000  Level Indianapolis Center
05:24PM 38.5861 -80.5681 256° West 396 456 34,000  Level Indianapolis Center
05:25PM 38.5603 -80.7053 257° West 396 456 34,000  Level Indianapolis Center
05:26PM 38.5336 -80.8417 256° West 396 456 34,000  Level Indianapolis Center
05:27PM 38.5067 -80.9761 256° West 396 456 34,000  Level Indianapolis Center
05:28PM 38.4806 -81.1111 256° West 393 452 34,000  Level Indianapolis Center
05:29PM 38.4533 -81.2486 256° West 394 453 34,000  Level Indianapolis Center
05:30PM 38.4203 -81.4172 256° West 399 459 34,000  Level Indianapolis Center
05:31PM 38.3919 -81.5583 256° West 401 461 34,000  Level Indianapolis Center
05:32PM 38.3639 -81.7003 256° West 406 467 34,000  Level Indianapolis Center
05:34PM 38.3319 -81.8381 254° West 406 467 34,000  Level Indianapolis Center
05:35PM 38.2928 -81.9717 250° West 406 467 34,000 -360 Level Indianapolis Center
05:36PM 38.2547 -82.1053 250° West 404 465 33,300 -1,020 Descending Indianapolis Center
05:37PM 38.2169 -82.2383 250° West 402 463 32,000 -660 Descending Indianapolis Center
05:38PM 38.1800 -82.3708 251° West 398 458 32,000  Level Indianapolis Center
05:39PM 38.1406 -82.5064 250° West 398 458 32,000  Level Indianapolis Center
05:40PM 38.0958 -82.6622 250° West 399 459 32,000  Level Indianapolis Center
05:41PM 38.0569 -82.7986 250° West 406 467 32,000  Level Indianapolis Center
05:42PM 38.0192 -82.9269 250° West 397 457 32,000  Level Indianapolis Center
05:43PM 37.9825 -83.0519 250° West 386 444 32,000  Level Indianapolis Center
05:44PM 37.9456 -83.1808 250° West 386 444 32,000  Level Indianapolis Center
05:45PM 37.9008 -83.3306 249° West 387 445 32,000  Level Indianapolis Center
05:46PM 37.8633 -83.4575 250° West 387 445 32,000  Level Indianapolis Center
05:47PM 37.8256 -83.5864 250° West 387 445 32,000  Level Indianapolis Center
05:48PM 37.7858 -83.7164 249° West 393 452 32,000 -840 Level Indianapolis Center
05:49PM 37.7472 -83.8458 249° West 394 453 30,300 -1,800 Descending Indianapolis Center
05:50PM 37.7103 -83.9697 249° West 385 443 28,300 -2,220 Descending Indianapolis Center
05:51PM 37.6667 -84.1136 249° West 379 436 25,800 -2,340 Descending Indianapolis Center
05:52PM 37.6253 -84.2492 249° West 402 463 23,500 -2,340 Descending Indianapolis Center
05:53PM 37.5825 -84.3864 249° West 419 482 21,000 -2,520 Descending Indianapolis Center
05:54PM 37.5439 -84.5108 249° West 392 451 18,400 -2,340 Descending Indianapolis Center
05:55PM 37.5053 -84.6375 249° West 389 448 16,300 -1,980 Descending Indianapolis Center
05:56PM 37.5214 -84.7694 279° West 395 455 14,400 -2,280 Descending Indianapolis Center
05:57PM 37.6094 -84.8911 312° West 399 459 11,700 -2,160 Descending Indianapolis Center
05:58PM 37.6822 -84.9925 312° West 395 455 10,000 -840 Descending Indianapolis Center
05:59PM 37.7506 -85.0875 312° West 370 426 10,000  Level Indianapolis Center
06:00PM 37.8211 -85.1825 313° West 370 426 10,000 -300 Level Indianapolis Center
06:01PM 37.8844 -85.2678 313° West 340 391 9,500 -1,140 Descending Indianapolis Center
06:02PM 37.9378 -85.3456 311° West 297 342 7,700 -1,740 Descending Indianapolis Center
06:03PM 38.0008 -85.4353 312° West 285 328 6,000 -840 Descending Indianapolis Center
06:04PM 38.0522 -85.5064 313° West 277 319 6,000  Level Indianapolis Center
06:05PM 38.1022 -85.5778 312° West 272 313 6,000 -180 Level Indianapolis Center
06:07PM 38.1758 -85.6167 337° Northwest 281 323 5,700 -780 Descending Indianapolis Center
06:08PM 38.2464 -85.6447 343° North 271 312 4,500 -1,080 Descending Indianapolis Center
06:09PM 38.3233 -85.6750 343° North 275 316 3,500 -780 Descending Indianapolis Center
06:10PM 38.3628 -85.7328 311° West 260 299 3,000 -300 Descending Indianapolis Center
06:11PM 38.3164 -85.7667 210° Southwest 221 254 3,000 -540 Level Indianapolis Center
06:12PM 38.2581 -85.7553 171° South 192 221 2,000 -1,020 Descending Indianapolis Center